Latest Weather Observations for Barrow Island

IDW60801

Issued at 6:53 am WST Saturday 10 December 2022 (issued every 10 minutes, with the page automatically refreshed every 10 minutes)

About weather observations | Map of weather stations | Latest weather observations for WA | Other Formats
Station Details ID: 005094 Name: BARROW ISLAND AIRPORT Lat: -20.87 Lon: 115.41 Height: 6.4 m
Data from the previous 72 hours. | See also: Recent months at Barrow Island
Date/Time
WST
Temp
°C
App
Temp
°C
Dew
Point
°C
Rel
Hum
%
Delta-T
°C
Wind Press
QNH
hPa
Press
MSL
hPa
Rain since
9am
mm
Dir  Spd
km/h
Gust
km/h
Spd
kts
Gust
kts
10/06:30am 24.2 20.1 18.2 69 3.8 SSW 37 43 20 23 1010.2 1010.2 0.0
10/06:00am 23.9 19.3 18.1 70 3.6 SSW 39 44 21 24 1009.7 1009.7 0.0
10/05:30am 23.7 19.3 18.4 72 3.3 SSW 39 44 21 24 1009.6 1009.6 0.0
10/05:00am 23.8 19.6 18.0 70 3.6 SSW 37 43 20 23 1009.5 1009.5 0.0
10/04:30am 24.0 19.4 18.0 69 3.8 SSW 39 46 21 25 1009.2 1009.2 0.0
10/04:00am 24.1 19.6 18.3 70 3.7 SSW 39 44 21 24 1009.1 1009.1 0.0
10/03:30am 24.2 19.9 18.6 71 3.5 SSW 39 44 21 24 1009.0 1009.0 0.0
10/03:00am 24.3 20.7 19.4 74 3.1 SSW 37 43 20 23 1009.0 1009.0 0.0
10/02:30am 24.4 21.3 19.7 75 3.0 SSW 35 43 19 23 1008.9 1008.9 0.0
10/02:00am 24.5 21.8 20.4 78 2.7 SW 35 43 19 23 1009.2 1009.2 0.0
10/01:30am 24.6 22.0 20.7 79 2.6 SW 35 43 19 23 1009.4 1009.4 0.0
10/01:00am 24.7 22.3 21.0 80 2.4 SW 35 41 19 22 1009.4 1009.4 0.0
10/12:30am 24.6 22.3 21.3 82 2.2 SW 35 41 19 22 1009.5 1009.5 0.0
10/12:00am 24.7 22.4 20.6 78 2.7 SW 33 41 18 22 1009.6 1009.6 0.0
 
Date/Time
WST
Temp
°C
App
Temp
°C
Dew
Point
°C
Rel
Hum
%
Delta-T
°C
Wind Press
QNH
hPa
Press
MSL
hPa
Rain since
9am
mm
Dir  Spd
km/h
Gust
km/h
Spd
kts
Gust
kts
09/11:30pm 24.9 23.0 21.0 79 2.6 SW 32 37 17 20 1009.7 1009.7 0.0
09/11:00pm 24.6 24.2 20.9 80 2.4 WSW 24 30 13 16 1010.1 1010.1 0.0
09/10:30pm 24.8 24.0 20.9 79 2.6 WSW 26 32 14 17 1010.0 1010.0 0.0
09/10:00pm 24.8 24.0 20.9 79 2.6 WSW 26 32 14 17 1009.7 1009.7 0.0
09/09:30pm 24.9 23.6 20.6 77 2.8 WSW 28 35 15 19 1009.5 1009.5 0.0
09/09:00pm 24.7 23.3 20.4 77 2.8 WSW 28 33 15 18 1009.4 1009.4 0.0
09/08:30pm 24.6 23.4 20.1 76 2.9 WSW 26 32 14 17 1009.2 1009.2 0.0
09/08:00pm 24.8 23.0 20.3 76 2.9 WSW 30 35 16 19 1009.2 1009.2 0.0
09/07:30pm 25.0 23.8 20.0 74 3.2 WSW 26 32 14 17 1009.0 1009.0 0.0
09/07:00pm 25.2 23.5 19.8 72 3.5 WSW 28 33 15 18 1008.9 1008.9 0.0
09/06:30pm 25.7 23.4 19.3 67 4.1 WSW 30 35 16 19 1008.7 1008.7 0.0
09/06:00pm 26.2 23.2 18.6 63 4.9 WSW 32 37 17 20 1008.3 1008.3 0.0
09/05:30pm 26.8 23.8 18.6 60 5.2 WSW 32 35 17 19 1008.3 1008.3 0.0
09/05:00pm 27.0 24.2 19.1 62 5.1 WSW 32 39 17 21 1008.5 1008.5 0.0
09/04:30pm 27.0 23.8 18.6 60 5.4 WSW 33 39 18 21 1008.5 1008.5 0.0
09/04:00pm 27.1 24.2 18.9 61 5.3 SW 32 39 17 21 1008.6 1008.6 0.0
09/03:30pm 27.0 22.8 17.2 55 6.1 SW 35 41 19 22 1008.8 1008.8 0.0
09/03:00pm 27.1 22.5 17.0 54 6.3 SW 37 43 20 23 1009.1 1009.1 0.0
09/02:30pm 27.0 22.6 17.5 56 6.0 SW 37 46 20 25 1009.3 1009.3 0.0
09/02:00pm 26.7 22.4 18.6 61 5.2 SW 39 44 21 24 1009.5 1009.5 0.0
09/01:30pm 26.4 21.8 18.0 60 5.3 SW 39 46 21 25 1009.7 1009.7 0.0
09/01:00pm 26.5 21.9 18.1 60 5.3 SW 39 44 21 24 1009.8 1009.8 0.0
09/12:30pm 26.2 22.5 18.3 61 5.0 SW 35 41 19 22 1010.0 1010.0 0.0
09/12:00pm 26.0 22.8 18.2 62 4.9 SW 32 39 17 21 1010.4 1010.4 0.0
09/11:30am 26.1 23.0 18.8 64 4.7 SW 33 37 18 20 1010.7 1010.7 0.0
09/11:00am 26.0 23.3 19.2 66 4.4 SW 32 37 17 20 1010.9 1010.9 0.0
09/10:30am 25.4 22.4 18.6 66 4.3 SW 32 37 17 20 1011.0 1011.0 0.0
09/10:00am 25.4 22.4 19.1 68 4.0 SW 33 37 18 20 1010.9 1010.9 0.0
09/09:30am 25.2 22.2 18.6 67 4.2 SW 32 39 17 21 1011.1 1011.1 0.0
09/09:00am 25.0 21.9 18.9 69 3.9 SW 33 37 18 20 1010.9 1010.9 0.0
09/08:30am 24.8 21.9 19.2 71 3.6 SW 33 37 18 20 1010.8 1010.8 0.0
09/08:00am 24.2 21.0 19.5 75 3.0 SW 35 39 19 21 1010.5 1010.5 0.0
09/07:30am 24.0 20.7 19.3 75 3.0 SW 35 41 19 22 1010.3 1010.3 0.0
09/07:00am 23.8 20.4 18.9 74 3.1 SW 35 41 19 22 1010.0 1010.0 0.0
09/06:30am 23.6 20.2 18.9 75 3.0 SW 35 39 19 21 1009.7 1009.7 0.0
09/06:00am 23.2 21.0 19.6 80 2.3 SW 30 35 16 19 1009.5 1009.5 0.0
09/05:30am 23.0 20.5 19.8 82 2.1 SW 32 39 17 21 1009.0 1009.0 0.0
09/05:00am 23.0 20.9 19.8 82 2.1 SW 30 35 16 19 1008.8 1008.8 0.0
09/04:30am 23.0 20.5 19.8 82 2.1 SW 32 39 17 21 1008.5 1008.5 0.0
09/04:00am 23.0 20.8 19.6 81 2.2 SW 30 37 16 20 1008.4 1008.4 0.0
09/03:30am 23.1 21.1 19.9 82 2.1 SW 30 39 16 21 1008.2 1008.2 0.0
09/03:00am 23.3 21.0 20.2 83 2.0 SW 32 35 17 19 1008.2 1008.2 0.0
09/02:30am 23.4 21.6 20.3 83 2.0 SW 30 37 16 20 1008.2 1008.2 0.0
09/02:00am 23.5 21.9 20.0 81 2.3 WSW 28 41 15 22 1008.3 1008.3 0.0
09/01:30am 23.6 21.6 19.9 80 2.4 WSW 30 35 16 19 1008.4 1008.4 0.0
09/01:00am 23.6 21.1 19.7 79 2.5 WSW 32 39 17 21 1008.6 1008.6 0.0
09/12:30am 23.8 21.2 19.5 77 2.8 WSW 32 41 17 22 1008.8 1008.8 0.0
09/12:00am 24.1 21.7 20.4 80 2.4 WSW 33 39 18 21 1008.9 1008.9 0.0
 
Date/Time
WST
Temp
°C
App
Temp
°C
Dew
Point
°C
Rel
Hum
%
Delta-T
°C
Wind Press
QNH
hPa
Press
MSL
hPa
Rain since
9am
mm
Dir  Spd
km/h
Gust
km/h
Spd
kts
Gust
kts
08/11:30pm 24.1 21.5 19.6 76 2.9 WSW 32 39 17 21 1009.1 1009.1 0.0
08/11:00pm 24.3 21.3 19.8 76 2.9 WSW 35 44 19 24 1009.1 1009.1 0.0
08/10:30pm 24.4 21.8 19.9 76 2.9 WSW 33 41 18 22 1009.3 1009.3 0.0
08/10:00pm 24.4 21.3 19.7 75 3.0 WSW 35 43 19 23 1009.4 1009.4 0.0
08/09:30pm 24.3 21.9 20.0 77 2.8 WSW 32 39 17 21 1009.5 1009.5 0.0
08/09:00pm 24.4 22.1 20.1 77 2.8 W 32 43 17 23 1009.3 1009.3 0.0
08/08:30pm 24.5 21.9 20.0 76 2.9 W 33 43 18 23 1009.0 1009.0 0.0
08/08:00pm 24.6 22.2 19.9 75 3.0 W 32 41 17 22 1008.6 1008.6 0.0
08/07:30pm 24.7 21.9 19.5 73 3.3 W 33 44 18 24 1008.2 1008.2 0.0
08/07:00pm 25.0 22.1 20.0 74 3.2 W 35 43 19 23 1008.0 1008.0 0.0
08/06:30pm 25.5 22.9 19.6 70 3.8 W 32 41 17 22 1007.7 1007.7 0.0
08/06:00pm 26.3 23.7 19.4 66 4.5 W 32 41 17 22 1007.5 1007.5 0.0
08/05:30pm 27.0 23.9 18.8 60 5.3 W 33 41 18 22 1007.2 1007.2 0.0
08/05:00pm 27.5 24.1 19.0 59 5.5 W 35 44 19 24 1007.0 1007.0 0.0
08/04:30pm 28.0 24.3 18.4 56 6.1 WSW 35 43 19 23 1007.1 1007.1 0.0
08/04:00pm 29.2 25.2 18.6 52 6.8 WSW 37 46 20 25 1007.1 1007.1 0.0
08/03:30pm 29.4 26.0 17.6 49 7.5 W 32 39 17 21 1007.2 1007.2 0.0
08/03:00pm 28.7 25.4 17.9 52 6.9 WSW 32 39 17 21 1007.4 1007.4 0.0
08/02:30pm 28.9 26.0 19.2 55 6.3 WSW 33 43 18 23 1007.6 1007.6 0.0
08/02:00pm 27.8 24.9 19.3 60 5.5 WSW 33 41 18 22 1007.8 1007.8 0.0
08/01:30pm 27.2 23.9 19.3 62 5.1 SW 35 41 19 22 1007.8 1007.8 0.0
08/01:00pm 27.7 24.9 19.0 59 5.6 SW 32 39 17 21 1008.1 1008.1 0.0
08/12:30pm 27.8 25.2 19.6 61 5.3 SSW 32 37 17 20 1008.6 1008.6 0.0
08/12:00pm 27.0 23.9 18.3 59 5.5 SSW 32 39 17 21 1009.0 1009.0 0.0
08/11:30am 26.6 23.2 18.2 60 5.3 SSW 33 39 18 21 1009.4 1009.4 0.0
08/11:00am 26.0 22.2 17.1 58 5.5 SSW 33 41 18 22 1009.9 1009.9 0.0
08/10:30am 25.6 21.2 17.5 61 5.1 SSW 37 43 20 23 1010.2 1010.2 0.0
08/10:00am 25.2 21.1 18.2 65 4.4 SSW 37 44 20 24 1010.3 1010.3 0.0
08/09:30am 24.7 20.4 17.9 66 4.3 SSW 37 43 20 23 1010.6 1010.6 0.0
08/09:00am 24.5 19.8 17.7 66 4.3 SSW 39 46 21 25 1010.6 1010.6 0.0
08/08:30am 24.2 18.7 17.7 67 4.1 SSW 43 52 23 28 1010.6 1010.6 0.0
08/08:00am 23.8 18.0 17.3 67 4.0 SSW 44 52 24 28 1010.3 1010.3 0.0
08/07:30am 23.6 17.8 17.3 67 3.9 SSW 44 52 24 28 1010.0 1010.0 0.0
08/07:00am 23.4 17.8 17.8 71 3.5 SSW 44 54 24 29 1009.8 1009.8 0.0
08/06:30am 23.0 17.4 17.5 71 3.4 SSW 43 48 23 26 1009.5 1009.5 0.0
08/06:00am 22.8 17.6 17.5 72 3.3 SSW 41 48 22 26 1009.3 1009.3 0.0
08/05:30am 22.7 17.9 17.6 73 3.2 SSW 39 46 21 25 1008.9 1008.9 0.0
08/05:00am 22.8 17.6 17.5 72 3.3 SSW 41 46 22 25 1008.7 1008.7 0.0
08/04:30am 23.1 18.1 18.0 73 3.2 SSW 41 48 22 26 1008.2 1008.2 0.0
08/04:00am 23.0 17.3 17.2 70 3.6 SSW 43 50 23 27 1007.8 1007.8 0.0
08/03:30am 23.3 17.6 17.1 68 3.8 SSW 43 50 23 27 1007.5 1007.5 0.0
08/03:00am 23.5 17.7 17.0 67 4.0 SSW 43 48 23 26 1007.3 1007.3 0.0
08/02:30am 23.6 18.8 18.3 72 3.3 SSW 41 50 22 27 1007.5 1007.5 0.0
08/02:00am 23.7 19.5 19.0 75 3.0 SSW 39 48 21 26 1007.5 1007.5 0.0
08/01:30am 23.9 19.6 19.6 77 2.8 SW 41 50 22 27 1007.6 1007.6 0.0
08/01:00am 24.0 20.2 19.7 77 2.8 SW 39 46 21 25 1007.9 1007.9 0.0
08/12:30am 24.1 20.1 20.2 79 2.5 SW 41 48 22 26 1008.2 1008.2 0.0
08/12:00am 24.6 21.4 21.1 81 2.3 SW 39 48 21 26 1008.4 1008.4 0.0
 
Date/Time
WST
Temp
°C
App
Temp
°C
Dew
Point
°C
Rel
Hum
%
Delta-T
°C
Wind Press
QNH
hPa
Press
MSL
hPa
Rain since
9am
mm
Dir  Spd
km/h
Gust
km/h
Spd
kts
Gust
kts
07/11:30pm 24.3 20.7 20.2 78 2.7 SW 39 50 21 27 1008.6 1008.6 0.0
07/11:00pm 24.2 21.4 20.3 79 2.5 WSW 35 43 19 23 1008.8 1008.8 0.0
07/10:30pm 24.2 21.2 19.9 77 2.8 WSW 35 43 19 23 1008.9 1008.9 0.0
07/10:00pm 24.3 21.8 20.8 81 2.3 WSW 35 43 19 23 1008.9 1008.9 0.0
07/09:30pm 24.4 22.4 20.7 80 2.4 WSW 32 39 17 21 1009.0 1009.0 0.0
07/09:00pm 24.3 21.3 20.6 80 2.4 WSW 37 43 20 23 1008.9 1008.9 0.0
07/08:30pm 24.5 22.0 20.8 80 2.4 WSW 35 41 19 22 1008.7 1008.7 0.0
07/08:00pm 24.5 22.2 20.6 79 2.5 WSW 33 39 18 21 1008.4 1008.4 0.0
07/07:30pm 24.6 21.8 20.3 77 2.8 WSW 35 43 19 23 1008.3 1008.3 0.0
07/07:00pm 24.7 22.4 20.2 76 2.9 WSW 32 43 17 23 1008.0 1008.0 0.0
07/06:30pm 25.3 22.9 20.3 74 3.3 W 33 41 18 22 1007.5 1007.5 0.0
07/06:00pm 26.0 23.1 20.1 70 3.8 W 35 44 19 24 1007.1 1007.1 0.0
07/05:30pm 26.6 23.7 20.0 67 4.3 W 35 41 19 22 1006.7 1006.7 0.0
07/05:00pm 27.2 24.6 19.8 64 4.8 W 33 41 18 22 1006.6 1006.6 0.0
07/04:30pm 27.6 25.0 19.9 63 5.0 W 33 41 18 22 1006.5 1006.5 0.0
07/04:00pm 27.5 24.8 19.6 62 5.1 WSW 33 41 18 22 1006.6 1006.6 0.0
07/03:30pm 27.5 24.2 19.3 61 5.3 WSW 35 43 19 23 1006.7 1006.7 0.0
07/03:00pm 27.6 24.2 18.9 59 5.6 W 35 43 19 23 1007.0 1007.0 0.0
07/02:30pm 27.6 24.4 19.4 61 5.3 WSW 35 43 19 23 1007.3 1007.3 0.0
07/02:00pm 27.8 25.2 19.6 61 5.3 WSW 32 39 17 21 1007.4 1007.4 0.0
07/01:30pm 28.1 25.7 19.1 58 5.8 W 30 39 16 21 1007.7 1007.7 0.0
07/01:00pm 27.4 24.4 18.7 59 5.6 WSW 32 43 17 23 1008.0 1008.0 0.0
07/12:30pm 28.1 26.5 19.1 58 5.8 WSW 26 37 14 20 1008.5 1008.5 0.0
07/12:00pm 27.4 25.1 18.4 58 5.7 WSW 28 37 15 20 1008.7 1008.7 0.0
07/11:30am 26.7 24.2 18.8 62 5.1 SW 30 35 16 19 1009.1 1009.1 0.0
07/11:00am 26.4 24.0 18.3 61 5.1 SW 28 33 15 18 1009.3 1009.3 0.0
07/10:30am 26.1 23.7 19.0 65 4.5 SW 30 35 16 19 1009.3 1009.3 0.0
07/10:00am 25.8 23.2 19.4 67 4.1 SW 32 37 17 20 1009.4 1009.4 0.0
07/09:30am 25.1 22.7 19.0 69 3.9 SW 30 37 16 20 1009.3 1009.3 0.0
07/09:00am 24.7 21.7 18.6 69 3.9 SSW 32 37 17 20 1009.5 1009.5 0.0
07/08:30am 24.5 20.8 18.4 69 3.9 SSW 35 43 19 23 1009.3 1009.3 0.0
07/08:00am 24.2 20.6 19.3 74 3.1 SSW 37 46 20 25 1008.7 1008.7 0.0
07/07:30am 23.7 19.0 18.6 73 3.2 SSW 41 48 22 26 1008.3 1008.3 0.0
07/07:00am 23.5 18.8 18.6 74 3.1 SSW 41 48 22 26 1008.3 1008.3 0.0

Other formats

Comma delimited format used in spreadsheet applications
http://www.bom.gov.au/fwo/IDW60801/IDW60801.95304.axf

JavaScript Object Notation format (JSON) in row-major order
http://www.bom.gov.au/fwo/IDW60801/IDW60801.95304.json

Data quality

Most of these data are generated automatically and are frequently updated. Quality checks on data are not normally performed. It is possible for incorrect values to appear. Refer to information at About Latest Weather Observations and please check the disclaimer before using these data.